• Join FlightAware (Why Join?)
  • Login
  • US Flag 
05:44PM EST


 

Airport Tracker/Info


-or-


 

Live Flight TrackerFlight Track Log ✈ UCA3599 ✈ 10-Nov-2013 ✈ KBGM - KIAD

Flight Track Log - Related Links

Times and Time Zones

All times are in EST time to prevent confusion due to time zone crossing. See the UCA3599 flight status page for this flight to view local times or setup timezone preferences in your user account.

Time Position Orientation Groundspeed Altitude Reporting Facility
EST Latitude Longitude Course Direction KTS MPH feet Rate Location/Type
05:58AM 42.1456 -75.9956 211° Southwest 240 276 4,200  Level New York Center
05:59AM 42.1108 -76.0319 218° Southwest 195 224 5,700 1,440 Climbing New York Center
06:00AM 42.0658 -76.0589 204° Southwest 174 200 7,100 1,740 Climbing New York Center
06:01AM 42.0208 -76.0889 206° Southwest 169 194 9,300 1,680 Climbing New York Center
06:02AM 41.9800 -76.1164 207° Southwest 169 194 10,500 1,080 Climbing New York Center
06:03AM 41.8565 -76.1470 211° Southwest  Level Estimated
06:03AM 41.9350 -76.1461 206° Southwest 169 194 11,500  Level New York Center
06:04AM 41.8900 -76.1731 204° Southwest 186 214 12,300 900 Climbing New York Center
06:05AM 41.8361 -76.2106 207° Southwest 196 226 13,400 1,020 Climbing New York Center
06:06AM 41.7869 -76.2428 206° Southwest 206 237 14,400 1,020 Climbing New York Center
06:07AM 41.7375 -76.2747 206° Southwest 206 237 15,500 780 Climbing New York Center
06:08AM 41.6925 -76.3017 204° Southwest 206 237 16,000 240 Climbing New York Center
06:09AM 41.6386 -76.3389 207° Southwest 206 237 16,000  Level New York Center
06:10AM 41.5742 -76.3806 206° Southwest 225 259 16,000  Level New York Center
06:11AM 41.5142 -76.4200 206° Southwest 237 273 16,000  Level New York Center
06:12AM 41.4539 -76.4592 206° Southwest 245 282 16,000  Level New York Center
06:13AM 41.3981 -76.4931 204° Southwest 245 282 16,000  Level New York Center
06:14AM 41.3314 -76.5372 206° Southwest 250 288 16,000  Level New York Center
06:15AM 41.2711 -76.5789 207° Southwest 250 288 16,000  Level New York Center
06:16AM 41.2086 -76.6178 205° Southwest 250 288 16,000  Level New York Center
06:17AM 41.1550 -76.6517 205° Southwest 245 282 16,000  Level New York Center
06:18AM 41.0861 -76.6953 206° Southwest 250 288 16,000  Level New York Center
06:19AM 41.0258 -76.7342 206° Southwest 250 288 16,000  Level New York Center
06:20AM 40.9675 -76.7728 207° Southwest 250 288 16,000  Level New York Center
06:21AM 40.9136 -76.8094 207° Southwest 250 288 16,000  Level New York Center
06:22AM 40.8469 -76.8500 205° Southwest 244 281 16,000  Level New York Center
06:23AM 40.7931 -76.8836 205° Southwest 249 287 16,000  Level New York Center
06:24AM 40.7167 -76.9097 195° South 249 287 16,000  Level New York Center
06:25AM 40.6533 -76.9286 193° South 254 292 16,000  Level New York Center
06:26AM 40.5792 -76.9522 194° South 254 292 16,000  Level New York Center
06:27AM 40.5111 -76.9733 193° South 259 298 16,000  Level New York Center
06:28AM 40.4433 -76.9944 193° South 259 298 16,000 -540 Level New York Center
06:30AM 40.3167 -77.0333 193° South 276 318 14,500 -900 Descending Potomac TRACON
06:31AM 40.2333 -77.0500 189° South 279 321 13,600 -900 Descending Potomac TRACON
06:32AM 40.1667 -77.0833 201° Southwest 275 316 12,800 -840 Descending Potomac TRACON
06:33AM 40.1000 -77.1000 191° South 271 312 12,100 -840 Descending Potomac TRACON
06:34AM 40.0167 -77.1167 189° South 271 312 11,300 -660 Descending Potomac TRACON
06:35AM 39.9500 -77.1500 201° Southwest 266 306 10,800 -600 Descending Potomac TRACON
06:36AM 39.8833 -77.1667 191° South 260 299 10,200 -720 Descending Potomac TRACON
06:37AM 39.8167 -77.1833 191° South 266 306 9,500 -660 Descending Potomac TRACON
06:38AM 39.7333 -77.2167 197° South 265 305 8,900 -540 Descending Potomac TRACON
06:39AM 39.6833 -77.2333 194° South 260 299 8,500 -600 Descending Potomac TRACON
06:40AM 39.6500 -77.3000 237° Southwest 225 259 7,900 -600 Descending Potomac TRACON
06:41AM 39.5833 -77.3333 201° Southwest 271 312 7,400 -600 Descending Potomac TRACON
06:42AM 39.5000 -77.3500 189° South 263 303 6,700 -780 Descending Potomac TRACON
06:43AM 39.4333 -77.3500 180° South 256 295 6,000 -780 Descending Potomac TRACON
06:44AM 39.3833 -77.3667 194° South 249 287 5,300 -840 Descending Potomac TRACON
06:45AM 39.3167 -77.4000 201° Southwest 234 269 4,500 -840 Descending Potomac TRACON
06:46AM 39.2667 -77.4167 194° South 230 265 3,700 -780 Descending Potomac TRACON
06:47AM 39.2000 -77.4333 191° South 235 270 3,000 -420 Descending Potomac TRACON
06:48AM 39.1333 -77.4333 180° South 230 265 3,000 -120 Level Potomac TRACON
06:48AM 39.0833 -77.4333 180° South 215 247 2,800 -720 Descending Potomac TRACON
06:49AM 39.0333 -77.4333 180° South 182 209 1,700 -900 Descending Potomac TRACON
06:50AM 38.9833 -77.4333 180° South 137 158 1,000 -720 Descending Potomac TRACON
06:52AM 38.9474 -77.4599 128° Southeast  Level Estimated
06:59AM 38.9474 -77.4599 339° North  Level Estimated